Aviation Digital Data Service (ADDS)

Output produced by METARs form (1216 UTC 28 March 2015)
found at http://aviationweather.gov/adds/metars/
 
KISP 281120Z 2812/2912 34013G20KT 3SM -SN OVC025 
     FM282200 33013G20KT 3SM -SN OVC025 
     FM290300 34012G20KT P6SM VCSH BKN025